Forside
METAR-TAF:

METAR-TAF

Lufthavne :

Glasgow Airport

Glasgow, Skotland

Breddekreds: 55-52N, længdekreds: 004-26W, højde: 8 m

Aktuelle vejr

Denne rapport blev lavet for 32 minutter siden, kl. 12:50 UTC
Vind 10 kt fra vestnordvest
Temperatur 10°C
Fugtighed 57%
Tryk 1034 hPa
Sigt 10 km eller mere
Overskyet i en højde af 3600 ft

METAR: EGPF 311250Z AUTO 30010KT 9999 OVC036 10/02 Q1034

Tid: 14:22 (13:22 UTC)

Vejrudsigter

Denne rapport blev lavet for 2 timer og 17 minutter siden, kl. 11:05 UTC
Foreløbig gælder fra 31 på 12 UTC til 01 på 12 UTC
Vind 7 kt fra vest
Sigt 10 km eller mere
Brudte skyer i en højde af 3000 ft
Sandsynlighed 30% :
Midlertidig
fra 01 på 10 UTC til 01 på 12 UTC
Sigt: 7000 m
Brudte skyer i en højde af 1400 ft
let regn

TAF: EGPF 311105Z 3112/0112 28007KT 9999 BKN030 PROB30 TEMPO 0110/0112 7000 -RA BKN014

Vejrobservationer og prognoser fra mere end 4000 lufthavne (METAR og TAF).

De gule og røde prikker repræsenterer de meteorologiske stationer.

Flyt musen over at se navnet på stationen.

Så klik over at se vejr observationer og prognoser.

At skifte det kort: Klik på de grønne knapper med et sort kors for at zoome ind; på den grønne knap med en bindestreg for at zoome ud; eller på de grønne pile for tilstødende kort.


METAR-TAF: